sensor_id;sensor_type;location;lat;lon;timestamp;P1;durP1;ratioP1;P2;durP2;ratioP2
50495;SDS011;38806;51.554;5.704;2022-12-07T00:01:30;49.60;;;31.20;;
50495;SDS011;38806;51.554;5.704;2022-12-07T00:03:31;50.25;;;29.70;;
50495;SDS011;38806;51.554;5.704;2022-12-07T00:05:31;58.72;;;37.22;;
50495;SDS011;38806;51.554;5.704;2022-12-07T00:07:31;58.10;;;35.83;;
50495;SDS011;38806;51.554;5.704;2022-12-07T00:09:31;62.83;;;35.05;;
50495;SDS011;38806;51.554;5.704;2022-12-07T00:11:31;60.50;;;33.70;;
50495;SDS011;38806;51.554;5.704;2022-12-07T00:13:32;61.03;;;35.65;;
50495;SDS011;38806;51.554;5.704;2022-12-07T00:15:33;63.78;;;37.53;;
50495;SDS011;38806;51.554;5.704;2022-12-07T00:17:34;70.53;;;38.80;;
50495;SDS011;38806;51.554;5.704;2022-12-07T00:19:34;66.95;;;42.22;;
50495;SDS011;38806;51.554;5.704;2022-12-07T00:21:35;64.70;;;37.78;;
50495;SDS011;38806;51.554;5.704;2022-12-07T00:23:35;64.15;;;37.25;;
50495;SDS011;38806;51.554;5.704;2022-12-07T00:25:35;69.55;;;38.55;;
50495;SDS011;38806;51.554;5.704;2022-12-07T00:27:35;60.85;;;34.58;;
50495;SDS011;38806;51.554;5.704;2022-12-07T00:29:36;62.03;;;36.60;;
50495;SDS011;38806;51.554;5.704;2022-12-07T00:31:37;49.80;;;31.38;;
50495;SDS011;38806;51.554;5.704;2022-12-07T00:33:39;46.60;;;28.23;;
50495;SDS011;38806;51.554;5.704;2022-12-07T00:35:39;52.30;;;30.38;;
50495;SDS011;38806;51.554;5.704;2022-12-07T00:37:39;52.28;;;29.77;;
50495;SDS011;38806;51.554;5.704;2022-12-07T00:39:39;61.28;;;37.42;;
50495;SDS011;38806;51.554;5.704;2022-12-07T00:41:40;47.70;;;31.33;;
50495;SDS011;38806;51.554;5.704;2022-12-07T00:43:40;68.85;;;38.00;;
50495;SDS011;38806;51.554;5.704;2022-12-07T00:45:41;44.72;;;30.15;;
50495;SDS011;38806;51.554;5.704;2022-12-07T00:47:41;62.80;;;36.28;;
50495;SDS011;38806;51.554;5.704;2022-12-07T00:49:41;69.32;;;41.38;;
50495;SDS011;38806;51.554;5.704;2022-12-07T00:51:41;77.22;;;43.85;;
50495;SDS011;38806;51.554;5.704;2022-12-07T00:53:42;65.97;;;36.55;;
50495;SDS011;38806;51.554;5.704;2022-12-07T00:55:42;67.95;;;38.75;;
50495;SDS011;38806;51.554;5.704;2022-12-07T00:57:43;78.15;;;43.72;;
50495;SDS011;38806;51.554;5.704;2022-12-07T00:59:43;86.68;;;45.22;;
50495;SDS011;38806;51.554;5.704;2022-12-07T01:01:43;81.60;;;42.67;;
50495;SDS011;38806;51.554;5.704;2022-12-07T01:03:43;83.60;;;44.60;;
50495;SDS011;38806;51.554;5.704;2022-12-07T01:05:50;83.82;;;44.38;;
50495;SDS011;38806;51.554;5.704;2022-12-07T01:07:51;68.97;;;37.53;;
50495;SDS011;38806;51.554;5.704;2022-12-07T01:09:51;75.05;;;41.58;;
50495;SDS011;38806;51.554;5.704;2022-12-07T01:11:51;84.95;;;47.25;;
50495;SDS011;38806;51.554;5.704;2022-12-07T01:13:52;78.43;;;45.53;;
50495;SDS011;38806;51.554;5.704;2022-12-07T01:15:55;79.63;;;44.63;;
50495;SDS011;38806;51.554;5.704;2022-12-07T01:17:56;80.57;;;42.38;;
50495;SDS011;38806;51.554;5.704;2022-12-07T01:19:56;69.18;;;38.55;;
50495;SDS011;38806;51.554;5.704;2022-12-07T01:21:56;69.30;;;39.33;;
50495;SDS011;38806;51.554;5.704;2022-12-07T01:23:57;78.20;;;42.85;;
50495;SDS011;38806;51.554;5.704;2022-12-07T01:25:58;81.53;;;44.10;;
50495;SDS011;38806;51.554;5.704;2022-12-07T01:27:58;71.93;;;41.08;;
50495;SDS011;38806;51.554;5.704;2022-12-07T01:29:59;82.30;;;47.13;;
50495;SDS011;38806;51.554;5.704;2022-12-07T01:31:59;79.57;;;42.40;;
50495;SDS011;38806;51.554;5.704;2022-12-07T01:33:59;63.83;;;39.78;;
50495;SDS011;38806;51.554;5.704;2022-12-07T01:36:03;65.22;;;38.38;;
50495;SDS011;38806;51.554;5.704;2022-12-07T01:38:04;66.75;;;37.78;;
50495;SDS011;38806;51.554;5.704;2022-12-07T01:40:05;63.80;;;39.20;;
50495;SDS011;38806;51.554;5.704;2022-12-07T01:42:09;77.65;;;42.03;;
50495;SDS011;38806;51.554;5.704;2022-12-07T01:44:19;82.70;;;47.83;;
50495;SDS011;38806;51.554;5.704;2022-12-07T01:46:19;73.63;;;42.00;;
50495;SDS011;38806;51.554;5.704;2022-12-07T01:48:27;88.35;;;48.67;;
50495;SDS011;38806;51.554;5.704;2022-12-07T01:50:28;68.20;;;38.28;;
50495;SDS011;38806;51.554;5.704;2022-12-07T01:52:31;79.10;;;46.75;;
50495;SDS011;38806;51.554;5.704;2022-12-07T01:54:33;90.15;;;47.65;;
50495;SDS011;38806;51.554;5.704;2022-12-07T01:56:33;81.70;;;44.55;;
50495;SDS011;38806;51.554;5.704;2022-12-07T01:58:34;75.88;;;40.28;;
50495;SDS011;38806;51.554;5.704;2022-12-07T02:00:34;65.45;;;39.05;;
50495;SDS011;38806;51.554;5.704;2022-12-07T02:02:36;66.60;;;37.03;;
50495;SDS011;38806;51.554;5.704;2022-12-07T02:04:37;72.18;;;37.03;;
50495;SDS011;38806;51.554;5.704;2022-12-07T02:06:37;66.80;;;37.13;;
50495;SDS011;38806;51.554;5.704;2022-12-07T02:08:38;73.65;;;42.30;;
50495;SDS011;38806;51.554;5.704;2022-12-07T02:10:38;72.78;;;42.42;;
50495;SDS011;38806;51.554;5.704;2022-12-07T02:12:39;69.85;;;39.03;;
50495;SDS011;38806;51.554;5.704;2022-12-07T02:14:39;66.18;;;39.63;;
50495;SDS011;38806;51.554;5.704;2022-12-07T02:21:23;62.30;;;37.20;;
50495;SDS011;38806;51.554;5.704;2022-12-07T02:23:39;57.90;;;34.33;;
50495;SDS011;38806;51.554;5.704;2022-12-07T02:30:20;54.30;;;34.22;;
50495;SDS011;38806;51.554;5.704;2022-12-07T02:34:44;53.58;;;31.73;;
50495;SDS011;38806;51.554;5.704;2022-12-07T02:36:47;50.88;;;28.95;;
50495;SDS011;38806;51.554;5.704;2022-12-07T02:38:52;67.90;;;35.47;;
50495;SDS011;38806;51.554;5.704;2022-12-07T02:41:00;60.75;;;36.90;;
50495;SDS011;38806;51.554;5.704;2022-12-07T02:43:24;61.77;;;34.77;;
50495;SDS011;38806;51.554;5.704;2022-12-07T02:45:22;70.85;;;36.58;;
50495;SDS011;38806;51.554;5.704;2022-12-07T02:47:25;66.05;;;36.38;;
50495;SDS011;38806;51.554;5.704;2022-12-07T02:49:26;67.70;;;38.08;;
50495;SDS011;38806;51.554;5.704;2022-12-07T02:51:29;69.45;;;39.60;;
50495;SDS011;38806;51.554;5.704;2022-12-07T02:55:39;74.57;;;36.58;;
50495;SDS011;38806;51.554;5.704;2022-12-07T02:57:43;61.20;;;34.78;;
50495;SDS011;38806;51.554;5.704;2022-12-07T03:06:28;54.70;;;30.90;;
50495;SDS011;38806;51.554;5.704;2022-12-07T03:08:35;50.75;;;28.30;;
50495;SDS011;38806;51.554;5.704;2022-12-07T03:10:54;49.90;;;30.67;;
50495;SDS011;38806;51.554;5.704;2022-12-07T03:13:07;51.58;;;30.33;;
50495;SDS011;38806;51.554;5.704;2022-12-07T03:15:14;62.33;;;34.72;;
50495;SDS011;38806;51.554;5.704;2022-12-07T03:17:18;70.97;;;37.05;;
50495;SDS011;38806;51.554;5.704;2022-12-07T03:19:19;69.00;;;37.13;;
50495;SDS011;38806;51.554;5.704;2022-12-07T03:21:23;74.45;;;38.33;;
50495;SDS011;38806;51.554;5.704;2022-12-07T03:23:25;65.18;;;37.03;;
50495;SDS011;38806;51.554;5.704;2022-12-07T03:25:25;62.20;;;37.42;;
50495;SDS011;38806;51.554;5.704;2022-12-07T03:27:31;71.05;;;37.53;;
50495;SDS011;38806;51.554;5.704;2022-12-07T03:29:40;65.30;;;36.10;;
50495;SDS011;38806;51.554;5.704;2022-12-07T03:31:44;63.25;;;32.85;;
50495;SDS011;38806;51.554;5.704;2022-12-07T03:33:49;70.97;;;37.38;;
50495;SDS011;38806;51.554;5.704;2022-12-07T03:35:58;60.22;;;34.15;;
50495;SDS011;38806;51.554;5.704;2022-12-07T03:40:23;67.50;;;33.83;;
50495;SDS011;38806;51.554;5.704;2022-12-07T03:42:25;59.40;;;31.30;;
50495;SDS011;38806;51.554;5.704;2022-12-07T03:44:25;60.60;;;34.10;;
50495;SDS011;38806;51.554;5.704;2022-12-07T03:49:13;67.53;;;36.10;;
50495;SDS011;38806;51.554;5.704;2022-12-07T03:53:36;70.75;;;36.47;;
50495;SDS011;38806;51.554;5.704;2022-12-07T03:55:38;60.75;;;35.58;;
50495;SDS011;38806;51.554;5.704;2022-12-07T03:57:39;68.72;;;35.72;;
50495;SDS011;38806;51.554;5.704;2022-12-07T03:59:40;55.03;;;31.75;;
50495;SDS011;38806;51.554;5.704;2022-12-07T04:01:44;59.05;;;33.55;;
50495;SDS011;38806;51.554;5.704;2022-12-07T04:03:44;49.45;;;27.70;;
50495;SDS011;38806;51.554;5.704;2022-12-07T04:05:44;59.50;;;33.83;;
50495;SDS011;38806;51.554;5.704;2022-12-07T04:07:45;52.30;;;32.05;;
50495;SDS011;38806;51.554;5.704;2022-12-07T04:09:45;51.22;;;30.90;;
50495;SDS011;38806;51.554;5.704;2022-12-07T04:11:45;56.40;;;31.13;;
50495;SDS011;38806;51.554;5.704;2022-12-07T04:13:45;51.75;;;30.30;;
50495;SDS011;38806;51.554;5.704;2022-12-07T04:16:04;51.30;;;30.63;;
50495;SDS011;38806;51.554;5.704;2022-12-07T04:18:04;48.00;;;28.73;;
50495;SDS011;38806;51.554;5.704;2022-12-07T04:20:05;54.30;;;30.15;;
50495;SDS011;38806;51.554;5.704;2022-12-07T04:22:05;55.28;;;29.38;;
50495;SDS011;38806;51.554;5.704;2022-12-07T04:24:06;59.95;;;29.05;;
50495;SDS011;38806;51.554;5.704;2022-12-07T04:26:06;53.05;;;29.35;;
50495;SDS011;38806;51.554;5.704;2022-12-07T04:28:06;50.63;;;29.95;;
50495;SDS011;38806;51.554;5.704;2022-12-07T04:30:07;51.75;;;29.20;;
50495;SDS011;38806;51.554;5.704;2022-12-07T04:32:07;45.95;;;28.40;;
50495;SDS011;38806;51.554;5.704;2022-12-07T04:34:07;49.00;;;26.83;;
50495;SDS011;38806;51.554;5.704;2022-12-07T04:36:08;47.42;;;26.00;;
50495;SDS011;38806;51.554;5.704;2022-12-07T04:38:08;46.35;;;25.67;;
50495;SDS011;38806;51.554;5.704;2022-12-07T04:40:08;50.55;;;27.40;;
50495;SDS011;38806;51.554;5.704;2022-12-07T04:42:10;48.40;;;26.50;;
50495;SDS011;38806;51.554;5.704;2022-12-07T04:44:11;50.13;;;26.90;;
50495;SDS011;38806;51.554;5.704;2022-12-07T04:46:14;45.50;;;25.40;;
50495;SDS011;38806;51.554;5.704;2022-12-07T04:48:14;45.10;;;26.25;;
50495;SDS011;38806;51.554;5.704;2022-12-07T04:50:14;44.40;;;26.55;;
50495;SDS011;38806;51.554;5.704;2022-12-07T04:52:14;49.13;;;26.92;;
50495;SDS011;38806;51.554;5.704;2022-12-07T04:54:15;43.70;;;23.48;;
50495;SDS011;38806;51.554;5.704;2022-12-07T04:56:15;45.47;;;26.75;;
50495;SDS011;38806;51.554;5.704;2022-12-07T04:58:16;43.33;;;24.08;;
50495;SDS011;38806;51.554;5.704;2022-12-07T05:00:16;41.75;;;25.77;;
50495;SDS011;38806;51.554;5.704;2022-12-07T05:02:16;40.05;;;25.10;;
50495;SDS011;38806;51.554;5.704;2022-12-07T05:04:16;44.05;;;22.73;;
50495;SDS011;38806;51.554;5.704;2022-12-07T05:06:18;38.58;;;20.88;;
50495;SDS011;38806;51.554;5.704;2022-12-07T05:08:18;38.38;;;21.23;;
50495;SDS011;38806;51.554;5.704;2022-12-07T05:10:18;32.78;;;18.05;;
50495;SDS011;38806;51.554;5.704;2022-12-07T05:12:19;37.75;;;19.50;;
50495;SDS011;38806;51.554;5.704;2022-12-07T05:14:19;30.10;;;17.65;;
50495;SDS011;38806;51.554;5.704;2022-12-07T05:16:19;35.65;;;19.35;;
50495;SDS011;38806;51.554;5.704;2022-12-07T05:18:20;25.77;;;16.90;;
50495;SDS011;38806;51.554;5.704;2022-12-07T05:20:20;34.55;;;15.40;;
50495;SDS011;38806;51.554;5.704;2022-12-07T05:22:20;30.80;;;17.23;;
50495;SDS011;38806;51.554;5.704;2022-12-07T05:24:21;26.15;;;17.85;;
50495;SDS011;38806;51.554;5.704;2022-12-07T05:26:21;26.85;;;14.40;;
50495;SDS011;38806;51.554;5.704;2022-12-07T05:28:21;29.90;;;17.15;;
50495;SDS011;38806;51.554;5.704;2022-12-07T05:30:22;27.27;;;15.85;;
50495;SDS011;38806;51.554;5.704;2022-12-07T05:32:22;27.33;;;16.02;;
50495;SDS011;38806;51.554;5.704;2022-12-07T05:34:23;27.77;;;14.55;;
50495;SDS011;38806;51.554;5.704;2022-12-07T05:36:23;25.98;;;16.20;;
50495;SDS011;38806;51.554;5.704;2022-12-07T05:38:23;22.80;;;14.27;;
50495;SDS011;38806;51.554;5.704;2022-12-07T05:40:25;25.90;;;14.10;;
50495;SDS011;38806;51.554;5.704;2022-12-07T05:42:25;25.58;;;14.27;;
50495;SDS011;38806;51.554;5.704;2022-12-07T05:44:25;24.48;;;15.68;;
50495;SDS011;38806;51.554;5.704;2022-12-07T05:46:25;25.05;;;16.20;;
50495;SDS011;38806;51.554;5.704;2022-12-07T05:48:25;30.15;;;15.10;;
50495;SDS011;38806;51.554;5.704;2022-12-07T05:50:26;24.27;;;14.63;;
50495;SDS011;38806;51.554;5.704;2022-12-07T05:52:27;33.08;;;16.40;;
50495;SDS011;38806;51.554;5.704;2022-12-07T05:54:27;25.25;;;15.02;;
50495;SDS011;38806;51.554;5.704;2022-12-07T05:56:28;26.13;;;13.80;;
50495;SDS011;38806;51.554;5.704;2022-12-07T05:58:28;33.83;;;17.38;;
50495;SDS011;38806;51.554;5.704;2022-12-07T06:00:47;35.50;;;16.63;;
50495;SDS011;38806;51.554;5.704;2022-12-07T06:02:47;26.75;;;14.65;;
50495;SDS011;38806;51.554;5.704;2022-12-07T06:04:47;23.10;;;14.00;;
50495;SDS011;38806;51.554;5.704;2022-12-07T06:06:48;24.55;;;14.57;;
50495;SDS011;38806;51.554;5.704;2022-12-07T06:08:48;23.02;;;13.55;;
50495;SDS011;38806;51.554;5.704;2022-12-07T06:10:48;22.25;;;13.32;;
50495;SDS011;38806;51.554;5.704;2022-12-07T06:13:08;29.83;;;13.50;;
50495;SDS011;38806;51.554;5.704;2022-12-07T06:15:09;27.13;;;13.13;;
50495;SDS011;38806;51.554;5.704;2022-12-07T06:17:10;23.10;;;15.57;;
50495;SDS011;38806;51.554;5.704;2022-12-07T06:19:10;21.80;;;12.35;;
50495;SDS011;38806;51.554;5.704;2022-12-07T06:21:10;22.23;;;12.32;;
50495;SDS011;38806;51.554;5.704;2022-12-07T06:23:11;26.30;;;14.68;;
50495;SDS011;38806;51.554;5.704;2022-12-07T06:25:11;37.03;;;17.77;;
50495;SDS011;38806;51.554;5.704;2022-12-07T06:27:11;21.73;;;13.52;;
50495;SDS011;38806;51.554;5.704;2022-12-07T06:29:12;24.83;;;15.40;;
50495;SDS011;38806;51.554;5.704;2022-12-07T06:31:12;26.85;;;13.65;;
50495;SDS011;38806;51.554;5.704;2022-12-07T06:33:12;25.35;;;16.45;;
50495;SDS011;38806;51.554;5.704;2022-12-07T06:35:12;24.40;;;14.10;;
50495;SDS011;38806;51.554;5.704;2022-12-07T06:37:12;27.67;;;14.13;;
50495;SDS011;38806;51.554;5.704;2022-12-07T06:39:13;29.30;;;15.38;;
50495;SDS011;38806;51.554;5.704;2022-12-07T06:41:13;32.03;;;18.83;;
50495;SDS011;38806;51.554;5.704;2022-12-07T06:43:13;46.70;;;22.77;;
50495;SDS011;38806;51.554;5.704;2022-12-07T06:45:13;41.22;;;20.25;;
50495;SDS011;38806;51.554;5.704;2022-12-07T06:47:13;49.65;;;23.73;;
50495;SDS011;38806;51.554;5.704;2022-12-07T06:49:14;35.70;;;19.85;;
50495;SDS011;38806;51.554;5.704;2022-12-07T06:51:14;48.53;;;23.20;;
50495;SDS011;38806;51.554;5.704;2022-12-07T06:53:14;63.30;;;28.75;;
50495;SDS011;38806;51.554;5.704;2022-12-07T06:55:14;52.55;;;24.85;;
50495;SDS011;38806;51.554;5.704;2022-12-07T06:57:14;39.80;;;20.75;;
50495;SDS011;38806;51.554;5.704;2022-12-07T06:59:15;50.17;;;25.90;;
50495;SDS011;38806;51.554;5.704;2022-12-07T07:01:16;49.63;;;25.50;;
50495;SDS011;38806;51.554;5.704;2022-12-07T07:03:16;41.58;;;22.55;;
50495;SDS011;38806;51.554;5.704;2022-12-07T07:05:17;42.75;;;22.30;;
50495;SDS011;38806;51.554;5.704;2022-12-07T07:07:17;40.55;;;21.83;;
50495;SDS011;38806;51.554;5.704;2022-12-07T07:09:17;40.35;;;22.48;;
50495;SDS011;38806;51.554;5.704;2022-12-07T07:11:17;40.15;;;22.23;;
50495;SDS011;38806;51.554;5.704;2022-12-07T07:13:17;45.90;;;22.45;;
50495;SDS011;38806;51.554;5.704;2022-12-07T07:15:18;38.53;;;21.45;;
50495;SDS011;38806;51.554;5.704;2022-12-07T07:17:18;34.42;;;20.90;;
50495;SDS011;38806;51.554;5.704;2022-12-07T07:19:18;37.40;;;21.85;;
50495;SDS011;38806;51.554;5.704;2022-12-07T07:21:18;43.33;;;24.50;;
50495;SDS011;38806;51.554;5.704;2022-12-07T07:23:19;38.90;;;20.85;;
50495;SDS011;38806;51.554;5.704;2022-12-07T07:25:19;33.70;;;20.83;;
50495;SDS011;38806;51.554;5.704;2022-12-07T07:27:19;34.42;;;22.10;;
50495;SDS011;38806;51.554;5.704;2022-12-07T07:29:19;38.65;;;21.85;;
50495;SDS011;38806;51.554;5.704;2022-12-07T07:31:19;29.70;;;18.63;;
50495;SDS011;38806;51.554;5.704;2022-12-07T07:33:20;34.15;;;22.27;;
50495;SDS011;38806;51.554;5.704;2022-12-07T07:35:20;36.47;;;22.02;;
50495;SDS011;38806;51.554;5.704;2022-12-07T07:37:20;45.95;;;22.33;;
50495;SDS011;38806;51.554;5.704;2022-12-07T07:39:20;43.70;;;22.98;;
50495;SDS011;38806;51.554;5.704;2022-12-07T07:41:20;70.55;;;33.85;;
50495;SDS011;38806;51.554;5.704;2022-12-07T07:43:21;58.05;;;29.67;;
50495;SDS011;38806;51.554;5.704;2022-12-07T07:45:21;55.22;;;29.30;;
50495;SDS011;38806;51.554;5.704;2022-12-07T07:47:22;47.95;;;25.20;;
50495;SDS011;38806;51.554;5.704;2022-12-07T07:49:22;61.05;;;34.42;;
50495;SDS011;38806;51.554;5.704;2022-12-07T07:51:22;53.10;;;29.08;;
50495;SDS011;38806;51.554;5.704;2022-12-07T07:53:23;47.47;;;24.38;;
50495;SDS011;38806;51.554;5.704;2022-12-07T07:55:23;43.55;;;24.60;;
50495;SDS011;38806;51.554;5.704;2022-12-07T07:57:23;38.80;;;24.05;;
50495;SDS011;38806;51.554;5.704;2022-12-07T07:59:23;37.20;;;24.92;;
50495;SDS011;38806;51.554;5.704;2022-12-07T08:01:24;40.17;;;25.13;;
50495;SDS011;38806;51.554;5.704;2022-12-07T08:03:24;41.13;;;24.60;;
50495;SDS011;38806;51.554;5.704;2022-12-07T08:05:25;41.88;;;24.75;;
50495;SDS011;38806;51.554;5.704;2022-12-07T08:07:26;39.22;;;24.83;;
50495;SDS011;38806;51.554;5.704;2022-12-07T08:09:26;38.78;;;22.02;;
50495;SDS011;38806;51.554;5.704;2022-12-07T08:11:26;35.08;;;23.27;;
50495;SDS011;38806;51.554;5.704;2022-12-07T08:13:27;43.33;;;24.08;;
50495;SDS011;38806;51.554;5.704;2022-12-07T08:15:28;38.03;;;21.75;;
50495;SDS011;38806;51.554;5.704;2022-12-07T08:17:29;41.60;;;24.63;;
50495;SDS011;38806;51.554;5.704;2022-12-07T08:19:29;39.28;;;24.77;;
50495;SDS011;38806;51.554;5.704;2022-12-07T08:21:29;40.45;;;22.80;;
50495;SDS011;38806;51.554;5.704;2022-12-07T08:23:29;39.53;;;20.65;;
50495;SDS011;38806;51.554;5.704;2022-12-07T08:25:30;36.42;;;20.83;;
50495;SDS011;38806;51.554;5.704;2022-12-07T08:27:31;34.35;;;21.13;;
50495;SDS011;38806;51.554;5.704;2022-12-07T08:29:31;32.55;;;21.02;;
50495;SDS011;38806;51.554;5.704;2022-12-07T08:31:31;39.58;;;22.38;;
50495;SDS011;38806;51.554;5.704;2022-12-07T08:33:31;33.30;;;19.60;;
50495;SDS011;38806;51.554;5.704;2022-12-07T08:35:32;35.78;;;19.13;;
50495;SDS011;38806;51.554;5.704;2022-12-07T08:37:32;32.88;;;18.92;;
50495;SDS011;38806;51.554;5.704;2022-12-07T08:39:33;28.77;;;17.73;;
50495;SDS011;38806;51.554;5.704;2022-12-07T08:41:33;32.50;;;19.17;;
50495;SDS011;38806;51.554;5.704;2022-12-07T08:43:34;31.48;;;20.63;;
50495;SDS011;38806;51.554;5.704;2022-12-07T08:45:34;42.10;;;20.52;;
50495;SDS011;38806;51.554;5.704;2022-12-07T08:47:39;35.33;;;20.42;;
50495;SDS011;38806;51.554;5.704;2022-12-07T08:49:41;32.88;;;20.52;;
50495;SDS011;38806;51.554;5.704;2022-12-07T08:51:41;29.30;;;18.70;;
50495;SDS011;38806;51.554;5.704;2022-12-07T08:53:42;33.58;;;21.13;;
50495;SDS011;38806;51.554;5.704;2022-12-07T08:55:43;40.85;;;21.77;;
50495;SDS011;38806;51.554;5.704;2022-12-07T08:57:44;36.33;;;19.90;;
50495;SDS011;38806;51.554;5.704;2022-12-07T08:59:44;36.13;;;20.35;;
50495;SDS011;38806;51.554;5.704;2022-12-07T09:01:44;33.45;;;21.30;;
50495;SDS011;38806;51.554;5.704;2022-12-07T09:03:44;32.83;;;19.60;;
50495;SDS011;38806;51.554;5.704;2022-12-07T09:05:45;31.23;;;19.27;;
50495;SDS011;38806;51.554;5.704;2022-12-07T09:07:45;30.85;;;20.70;;
50495;SDS011;38806;51.554;5.704;2022-12-07T09:09:46;36.33;;;18.17;;
50495;SDS011;38806;51.554;5.704;2022-12-07T09:11:47;29.15;;;18.67;;
50495;SDS011;38806;51.554;5.704;2022-12-07T09:13:47;36.90;;;21.90;;
50495;SDS011;38806;51.554;5.704;2022-12-07T09:15:47;34.22;;;19.55;;
50495;SDS011;38806;51.554;5.704;2022-12-07T09:17:48;33.60;;;19.85;;
50495;SDS011;38806;51.554;5.704;2022-12-07T09:19:48;26.23;;;16.80;;
50495;SDS011;38806;51.554;5.704;2022-12-07T09:21:48;38.42;;;19.88;;
50495;SDS011;38806;51.554;5.704;2022-12-07T09:23:48;30.25;;;18.23;;
50495;SDS011;38806;51.554;5.704;2022-12-07T09:25:48;20.67;;;14.85;;
50495;SDS011;38806;51.554;5.704;2022-12-07T09:27:54;26.02;;;16.77;;
50495;SDS011;38806;51.554;5.704;2022-12-07T09:29:54;28.98;;;17.67;;
50495;SDS011;38806;51.554;5.704;2022-12-07T09:31:55;19.65;;;12.60;;
50495;SDS011;38806;51.554;5.704;2022-12-07T09:33:56;20.88;;;10.40;;
50495;SDS011;38806;51.554;5.704;2022-12-07T09:35:56;14.88;;;9.75;;
50495;SDS011;38806;51.554;5.704;2022-12-07T09:37:57;17.83;;;11.20;;
50495;SDS011;38806;51.554;5.704;2022-12-07T09:39:57;15.32;;;8.70;;
50495;SDS011;38806;51.554;5.704;2022-12-07T09:41:57;16.70;;;8.73;;
50495;SDS011;38806;51.554;5.704;2022-12-07T09:44:02;15.32;;;9.55;;
50495;SDS011;38806;51.554;5.704;2022-12-07T09:46:03;16.27;;;9.70;;
50495;SDS011;38806;51.554;5.704;2022-12-07T09:48:04;14.52;;;8.38;;
50495;SDS011;38806;51.554;5.704;2022-12-07T09:50:05;17.45;;;7.97;;
50495;SDS011;38806;51.554;5.704;2022-12-07T09:54:08;13.05;;;7.15;;
50495;SDS011;38806;51.554;5.704;2022-12-07T09:56:11;13.13;;;6.88;;
50495;SDS011;38806;51.554;5.704;2022-12-07T09:58:17;12.40;;;7.38;;
50495;SDS011;38806;51.554;5.704;2022-12-07T10:00:20;14.95;;;9.20;;
50495;SDS011;38806;51.554;5.704;2022-12-07T10:02:23;12.52;;;6.75;;
50495;SDS011;38806;51.554;5.704;2022-12-07T10:04:24;20.90;;;8.75;;
50495;SDS011;38806;51.554;5.704;2022-12-07T10:06:25;16.90;;;8.48;;
50495;SDS011;38806;51.554;5.704;2022-12-07T10:08:25;14.57;;;7.07;;
50495;SDS011;38806;51.554;5.704;2022-12-07T10:10:29;14.02;;;6.57;;
50495;SDS011;38806;51.554;5.704;2022-12-07T10:12:29;9.45;;;5.90;;
50495;SDS011;38806;51.554;5.704;2022-12-07T10:14:31;10.00;;;5.57;;
50495;SDS011;38806;51.554;5.704;2022-12-07T10:16:37;8.07;;;5.78;;
50495;SDS011;38806;51.554;5.704;2022-12-07T10:18:41;10.27;;;4.72;;
50495;SDS011;38806;51.554;5.704;2022-12-07T10:20:41;10.05;;;5.45;;
50495;SDS011;38806;51.554;5.704;2022-12-07T10:22:53;14.70;;;5.43;;
50495;SDS011;38806;51.554;5.704;2022-12-07T10:24:53;11.88;;;5.55;;
50495;SDS011;38806;51.554;5.704;2022-12-07T10:26:54;10.32;;;5.20;;
50495;SDS011;38806;51.554;5.704;2022-12-07T10:28:54;8.98;;;4.88;;
50495;SDS011;38806;51.554;5.704;2022-12-07T10:30:58;12.65;;;5.38;;
50495;SDS011;38806;51.554;5.704;2022-12-07T10:32:59;6.80;;;3.75;;
50495;SDS011;38806;51.554;5.704;2022-12-07T10:37:19;8.65;;;3.97;;
50495;SDS011;38806;51.554;5.704;2022-12-07T10:39:20;11.43;;;4.20;;
50495;SDS011;38806;51.554;5.704;2022-12-07T10:41:21;6.53;;;4.40;;
50495;SDS011;38806;51.554;5.704;2022-12-07T10:43:21;16.85;;;4.60;;
50495;SDS011;38806;51.554;5.704;2022-12-07T10:45:21;12.15;;;5.25;;
50495;SDS011;38806;51.554;5.704;2022-12-07T10:53:56;7.07;;;3.97;;
50495;SDS011;38806;51.554;5.704;2022-12-07T10:56:02;8.70;;;4.27;;
50495;SDS011;38806;51.554;5.704;2022-12-07T11:00:31;7.53;;;4.10;;
50495;SDS011;38806;51.554;5.704;2022-12-07T11:02:45;6.53;;;3.00;;
50495;SDS011;38806;51.554;5.704;2022-12-07T11:11:30;10.50;;;3.30;;
50495;SDS011;38806;51.554;5.704;2022-12-07T11:13:44;7.93;;;3.47;;
50495;SDS011;38806;51.554;5.704;2022-12-07T11:22:17;10.95;;;4.57;;
50495;SDS011;38806;51.554;5.704;2022-12-07T11:24:23;8.23;;;3.97;;
50495;SDS011;38806;51.554;5.704;2022-12-07T11:28:37;11.02;;;4.05;;
50495;SDS011;38806;51.554;5.704;2022-12-07T11:30:47;10.63;;;6.78;;
50495;SDS011;38806;51.554;5.704;2022-12-07T11:35:08;9.70;;;4.47;;
50495;SDS011;38806;51.554;5.704;2022-12-07T11:37:11;12.57;;;5.00;;
50495;SDS011;38806;51.554;5.704;2022-12-07T11:39:16;6.07;;;4.05;;
50495;SDS011;38806;51.554;5.704;2022-12-07T11:41:22;11.80;;;4.88;;
50495;SDS011;38806;51.554;5.704;2022-12-07T11:45:28;13.88;;;4.95;;
50495;SDS011;38806;51.554;5.704;2022-12-07T11:47:30;10.57;;;6.03;;
50495;SDS011;38806;51.554;5.704;2022-12-07T11:51:54;8.50;;;4.43;;
50495;SDS011;38806;51.554;5.704;2022-12-07T11:54:02;17.17;;;5.60;;
50495;SDS011;38806;51.554;5.704;2022-12-07T11:56:06;6.38;;;3.67;;
50495;SDS011;38806;51.554;5.704;2022-12-07T12:00:17;10.70;;;4.20;;
50495;SDS011;38806;51.554;5.704;2022-12-07T12:06:37;11.43;;;4.35;;
50495;SDS011;38806;51.554;5.704;2022-12-07T12:08:42;10.00;;;3.90;;
50495;SDS011;38806;51.554;5.704;2022-12-07T12:21:08;12.50;;;3.75;;
50495;SDS011;38806;51.554;5.704;2022-12-07T12:23:13;9.90;;;3.00;;
50495;SDS011;38806;51.554;5.704;2022-12-07T12:25:21;11.30;;;4.18;;
50495;SDS011;38806;51.554;5.704;2022-12-07T12:27:25;13.27;;;3.10;;
50495;SDS011;38806;51.554;5.704;2022-12-07T12:29:36;9.57;;;2.92;;
50495;SDS011;38806;51.554;5.704;2022-12-07T12:31:40;7.35;;;3.20;;
50495;SDS011;38806;51.554;5.704;2022-12-07T12:33:44;8.13;;;2.67;;
50495;SDS011;38806;51.554;5.704;2022-12-07T12:35:46;7.03;;;3.30;;
50495;SDS011;38806;51.554;5.704;2022-12-07T12:37:46;9.65;;;3.20;;
50495;SDS011;38806;51.554;5.704;2022-12-07T12:42:06;6.60;;;3.45;;
50495;SDS011;38806;51.554;5.704;2022-12-07T12:48:37;6.60;;;3.83;;
50495;SDS011;38806;51.554;5.704;2022-12-07T12:50:38;10.40;;;3.22;;
50495;SDS011;38806;51.554;5.704;2022-12-07T12:54:41;8.80;;;4.60;;
50495;SDS011;38806;51.554;5.704;2022-12-07T12:59:22;10.10;;;3.72;;
50495;SDS011;38806;51.554;5.704;2022-12-07T13:03:35;6.38;;;3.38;;
50495;SDS011;38806;51.554;5.704;2022-12-07T13:05:35;7.50;;;4.05;;
50495;SDS011;38806;51.554;5.704;2022-12-07T13:09:44;6.68;;;3.75;;
50495;SDS011;38806;51.554;5.704;2022-12-07T13:11:45;8.73;;;4.53;;
50495;SDS011;38806;51.554;5.704;2022-12-07T13:13:45;9.00;;;3.55;;
50495;SDS011;38806;51.554;5.704;2022-12-07T13:15:49;8.43;;;4.53;;
50495;SDS011;38806;51.554;5.704;2022-12-07T13:19:54;8.45;;;4.13;;
50495;SDS011;38806;51.554;5.704;2022-12-07T13:21:54;10.95;;;4.38;;
50495;SDS011;38806;51.554;5.704;2022-12-07T13:23:55;7.43;;;3.47;;
50495;SDS011;38806;51.554;5.704;2022-12-07T13:30:28;8.00;;;3.75;;
50495;SDS011;38806;51.554;5.704;2022-12-07T13:32:29;8.90;;;3.15;;
50495;SDS011;38806;51.554;5.704;2022-12-07T13:36:39;5.22;;;1.40;;
50495;SDS011;38806;51.554;5.704;2022-12-07T13:38:39;6.38;;;1.75;;
50495;SDS011;38806;51.554;5.704;2022-12-07T13:42:48;7.28;;;2.20;;